• Join FlightAware (Why Join?)
  • Login
  • US Flag 
02:20AM EDT


 

Airport Tracker/Info


-or-


 

Live Flight TrackerFlight Track Log ✈ UAL4305 ✈ 06-Apr-2013 ✈ KPNS - KIAH

Flight Track Log - Related Links

Times and Time Zones

All times are in EDT time to prevent confusion due to time zone crossing. See the UAL4305 flight status page for this flight to view local times or setup timezone preferences in your user account.

Time Position Orientation Groundspeed Altitude Reporting Facility
EDT Latitude Longitude Course Direction KTS MPH feet Rate Location/Type
07:45PM 30.4592 -87.1892 265° West 161 185 700  Level Jacksonville Center
07:46PM 30.3989 -87.1792 172° South 204 235 3,400 2,280 Climbing Jacksonville Center
07:47PM 30.3881 -87.2533 260° West 268 308 5,600 2,280 Climbing Jacksonville Center
07:48PM 30.4240 -87.5837 263° West  Level FlightAware Approximate
07:49PM 30.4138 -87.6844 265° West  Level FlightAware Approximate
07:49PM 30.3836 -87.3878 268° West 271 312 9,800  Level Houston Center
07:50PM 30.4054 -87.7853 265° West  Level FlightAware Approximate
07:50PM 30.3819 -87.4819 269° West 293 337 10,900  Level Houston Center
07:51PM 30.3781 -87.5886 268° West 329 379 12,400 1,500 Climbing Houston Center
07:52PM 30.3681 -87.7214 265° West 342 394 14,100 1,500 Climbing Houston Center
07:53PM 30.3478 -87.8281 258° West 339 390 15,600 1,380 Climbing Houston Center
07:54PM 30.3292 -87.9378 259° West 345 397 17,000 1,200 Climbing Houston Center
07:55PM 30.3103 -88.0469 259° West 347 399 18,100 960 Climbing Houston Center
07:56PM 30.2892 -88.1592 258° West 355 409 19,000 960 Climbing Houston Center
07:57PM 30.2700 -88.2750 259° West 365 420 20,100 1,320 Climbing Houston Center
07:58PM 30.2489 -88.3892 258° West 364 419 21,800 1,800 Climbing Houston Center
07:59PM 30.2300 -88.4997 259° West 351 404 23,900 1,680 Climbing Houston Center
08:00PM 30.2100 -88.6044 258° West 336 387 25,300 1,260 Climbing Houston Center
08:01PM 30.1858 -88.7358 258° West 347 399 26,600 1,020 Climbing Houston Center
08:02PM 30.1681 -88.8408 259° West 353 406 27,500 960 Climbing Houston Center
08:03PM 30.1472 -88.9519 258° West 354 407 28,600 1,020 Climbing Houston Center
08:04PM 30.1264 -89.0619 258° West 352 405 29,600 960 Climbing Houston Center
08:05PM 30.1064 -89.1744 258° West 356 410 30,600 1,020 Climbing Houston Center
08:06PM 30.0858 -89.2864 258° West 355 409 31,700 660 Climbing Houston Center
08:07PM 30.0603 -89.4253 258° West 364 419 32,000 120 Climbing Houston Center
08:08PM 30.0372 -89.5483 258° West 382 440 32,000  Level Houston Center
08:09PM 30.0128 -89.6719 257° West 391 450 32,000  Level Houston Center
08:10PM 29.9900 -89.7928 258° West 383 441 32,000  Level Houston Center
08:11PM 29.9664 -89.9144 257° West 385 443 32,000  Level Houston Center
08:12PM 29.9442 -90.0358 258° West 385 443 32,000 60 Level Houston Center
08:13PM 29.9211 -90.1547 257° West 381 438 32,200 780 Climbing Houston Center
08:14PM 29.8994 -90.2686 258° West 368 423 33,600 840 Climbing Houston Center
08:15PM 29.8775 -90.3761 257° West 349 402 34,000 180 Climbing Houston Center
08:16PM 29.8567 -90.4872 258° West 352 405 34,000  Level Houston Center
08:17PM 29.8300 -90.6239 257° West 363 418 34,000  Level Houston Center
08:18PM 29.8069 -90.7414 257° West 370 426 34,000  Level Houston Center
08:19PM 29.7833 -90.8583 257° West 375 432 34,000  Level Houston Center
08:20PM 29.7603 -90.9769 257° West 379 436 34,000  Level Houston Center
08:21PM 29.7364 -91.0944 257° West 378 435 34,000 -60 Level Houston Center
08:22PM 29.7139 -91.2122 258° West 377 434 33,900  Descending Houston Center
08:23PM 29.6883 -91.3350 257° West 393 452 34,000  Climbing Houston Center
08:25PM 29.6558 -91.4553 253° West 396 456 34,000  Level Houston Center
08:26PM 29.5892 -91.5861 240° Southwest 396 456 34,000  Level Houston Center
08:27PM 29.5336 -91.6950 240° Southwest 395 455 34,000  Level Houston Center
08:28PM 29.4847 -91.7911 240° Southwest 395 455 34,000  Level Houston Center
08:29PM 29.4186 -91.9225 240° Southwest 396 456 34,000  Level Houston Center
08:30PM 29.3806 -92.0358 249° West 390 449 34,000  Level Houston Center
08:31PM 29.3872 -92.1589 274° West 388 447 34,000  Level Houston Center
08:32PM 29.3967 -92.2819 275° West 387 445 34,000  Level Houston Center
08:33PM 29.4053 -92.4072 275° West 392 451 34,000  Level Houston Center
08:34PM 29.4144 -92.5322 275° West 392 451 34,000  Level Houston Center
08:35PM 29.4231 -92.6556 275° West 390 449 34,000  Level Houston Center
08:36PM 29.4319 -92.7814 275° West 393 452 34,000  Level Houston Center
08:37PM 29.4406 -92.9069 275° West 393 452 34,000  Level Houston Center
08:38PM 29.4519 -93.0578 275° West 395 455 34,000 -180 Level Houston Center
08:39PM 29.4597 -93.1842 274° West 396 456 33,700 -720 Descending Houston Center
08:40PM 29.4686 -93.3092 275° West 395 455 32,600 -1,740 Descending Houston Center
08:41PM 29.4767 -93.4367 274° West 398 458 30,200 -2,580 Descending Houston Center
08:42PM 29.4847 -93.5689 274° West 405 466 27,400 -2,640 Descending Houston Center
08:43PM 29.4933 -93.6997 274° West 411 473 24,800 -2,400 Descending Houston Center
08:44PM 29.5017 -93.8278 274° West 406 467 22,600 -2,340 Descending Houston Center
08:45PM 29.5092 -93.9489 274° West 385 443 20,100 -2,460 Descending Houston Center
08:46PM 29.5161 -94.0678 274° West 375 432 17,600 -2,160 Descending Houston Center
08:47PM 29.5225 -94.1753 274° West 353 406 15,700 -2,160 Descending Houston Center
08:48PM 29.5306 -94.3006 274° West 328 377 13,300 -1,680 Descending Houston Center
08:49PM 29.5561 -94.3958 287° West 322 371 12,300 -1,080 Descending Houston Center
08:50PM 29.5939 -94.4883 295° West 323 372 11,200 -1,080 Descending Houston Center
08:51PM 29.6336 -94.5794 297° West 320 368 10,200 -600 Descending Houston Center
08:52PM 29.6739 -94.6722 297° West 325 374 10,000 -120 Descending Houston Center
08:53PM 29.7225 -94.7875 296° West 317 365 10,000 -360 Level Houston Center
08:54PM 29.7475 -94.8469 296° West 294 338 9,300 -1,320 Descending Houston Center
08:55PM 29.7800 -94.9244 296° West 274 315 7,600 -1,620 Descending Houston Center
08:56PM 29.8122 -94.9994 296° West 265 305 6,100 -840 Descending Houston Center
08:57PM 29.8494 -95.0881 296° West 260 299 6,000 -60 Descending Houston Center
08:58PM 29.8808 -95.1622 296° West 260 299 6,000  Level Houston Center
08:59PM 29.8989 -95.2406 285° West 262 302 6,100  Climbing Houston Center
09:00PM 29.9008 -95.3206 272° West 254 292 6,100  Level Houston Center
09:01PM 29.9008 -95.3964 270° West 244 281 6,100 -60 Level Houston Center
09:02PM 29.9014 -95.4667 271° West 224 258 6,000 -660 Descending Houston Center
09:03PM 29.9000 -95.5439 269° West 215 247 4,900 -1,080 Descending Houston Center
09:04PM 29.9039 -95.6083 274° West 204 235 4,000 -480 Descending Houston Center
09:05PM 29.9631 -95.6133 356° North 226 260 4,000 -480 Level Houston Center
09:06PM 29.9936 -95.5478 62° Northeast 219 252 3,000 -840 Descending Houston Center
09:07PM 29.9925 -95.4967 91° East 198 228 2,500 -660 Descending Houston Center